sensor_id;sensor_type;location;lat;lon;timestamp;P1;durP1;ratioP1;P2;durP2;ratioP2
33453;SDS011;39400;49.744;7.012;2023-07-24T00:01:55;5.95;;;3.42;;
33453;SDS011;39400;49.744;7.012;2023-07-24T00:04:20;6.20;;;3.40;;
33453;SDS011;39400;49.744;7.012;2023-07-24T00:06:46;6.28;;;3.45;;
33453;SDS011;39400;49.744;7.012;2023-07-24T00:09:11;6.57;;;3.38;;
33453;SDS011;39400;49.744;7.012;2023-07-24T00:11:36;5.50;;;3.25;;
33453;SDS011;39400;49.744;7.012;2023-07-24T00:14:01;5.43;;;3.25;;
33453;SDS011;39400;49.744;7.012;2023-07-24T00:16:27;8.75;;;3.63;;
33453;SDS011;39400;49.744;7.012;2023-07-24T00:18:52;6.22;;;3.25;;
33453;SDS011;39400;49.744;7.012;2023-07-24T00:21:17;5.25;;;2.72;;
33453;SDS011;39400;49.744;7.012;2023-07-24T00:23:43;7.20;;;3.58;;
33453;SDS011;39400;49.744;7.012;2023-07-24T00:26:08;5.35;;;3.25;;
33453;SDS011;39400;49.744;7.012;2023-07-24T00:28:33;6.80;;;3.40;;
33453;SDS011;39400;49.744;7.012;2023-07-24T00:30:59;5.72;;;3.58;;
33453;SDS011;39400;49.744;7.012;2023-07-24T00:33:24;6.25;;;3.13;;
33453;SDS011;39400;49.744;7.012;2023-07-24T00:35:49;6.75;;;4.25;;
33453;SDS011;39400;49.744;7.012;2023-07-24T00:38:15;5.40;;;3.30;;
33453;SDS011;39400;49.744;7.012;2023-07-24T00:40:40;7.55;;;3.75;;
33453;SDS011;39400;49.744;7.012;2023-07-24T00:43:05;6.95;;;3.92;;
33453;SDS011;39400;49.744;7.012;2023-07-24T00:45:31;7.22;;;3.75;;
33453;SDS011;39400;49.744;7.012;2023-07-24T00:47:58;4.80;;;3.10;;
33453;SDS011;39400;49.744;7.012;2023-07-24T00:50:25;6.05;;;3.65;;
33453;SDS011;39400;49.744;7.012;2023-07-24T00:52:52;10.27;;;4.55;;
33453;SDS011;39400;49.744;7.012;2023-07-24T00:55:19;6.15;;;3.83;;
33453;SDS011;39400;49.744;7.012;2023-07-24T00:57:44;5.95;;;3.80;;
33453;SDS011;39400;49.744;7.012;2023-07-24T01:00:10;5.40;;;3.45;;
33453;SDS011;39400;49.744;7.012;2023-07-24T01:02:36;6.85;;;3.70;;
33453;SDS011;39400;49.744;7.012;2023-07-24T01:05:02;6.93;;;3.80;;
33453;SDS011;39400;49.744;7.012;2023-07-24T01:07:28;4.55;;;3.13;;
33453;SDS011;39400;49.744;7.012;2023-07-24T01:09:53;8.18;;;3.72;;
33453;SDS011;39400;49.744;7.012;2023-07-24T01:12:26;5.97;;;3.28;;
33453;SDS011;39400;49.744;7.012;2023-07-24T01:17:34;5.70;;;3.55;;
33453;SDS011;39400;49.744;7.012;2023-07-24T01:20:05;5.05;;;3.03;;
33453;SDS011;39400;49.744;7.012;2023-07-24T01:22:39;4.80;;;3.13;;
33453;SDS011;39400;49.744;7.012;2023-07-24T01:25:27;8.10;;;3.58;;
33453;SDS011;39400;49.744;7.012;2023-07-24T01:27:56;6.72;;;3.67;;
33453;SDS011;39400;49.744;7.012;2023-07-24T01:30:21;8.27;;;3.53;;
33453;SDS011;39400;49.744;7.012;2023-07-24T01:32:47;6.30;;;4.43;;
33453;SDS011;39400;49.744;7.012;2023-07-24T01:35:15;4.65;;;2.88;;
33453;SDS011;39400;49.744;7.012;2023-07-24T01:37:41;8.27;;;4.05;;
33453;SDS011;39400;49.744;7.012;2023-07-24T01:40:08;8.48;;;3.95;;
33453;SDS011;39400;49.744;7.012;2023-07-24T01:42:35;5.82;;;3.55;;
33453;SDS011;39400;49.744;7.012;2023-07-24T01:45:02;6.90;;;3.95;;
33453;SDS011;39400;49.744;7.012;2023-07-24T01:47:29;7.47;;;4.20;;
33453;SDS011;39400;49.744;7.012;2023-07-24T01:49:54;5.68;;;3.72;;
33453;SDS011;39400;49.744;7.012;2023-07-24T01:52:19;6.28;;;3.75;;
33453;SDS011;39400;49.744;7.012;2023-07-24T01:54:45;5.78;;;3.67;;
33453;SDS011;39400;49.744;7.012;2023-07-24T01:57:10;6.93;;;3.90;;
33453;SDS011;39400;49.744;7.012;2023-07-24T01:59:36;5.68;;;3.72;;
33453;SDS011;39400;49.744;7.012;2023-07-24T02:02:02;7.32;;;3.65;;
33453;SDS011;39400;49.744;7.012;2023-07-24T02:04:27;6.70;;;3.20;;
33453;SDS011;39400;49.744;7.012;2023-07-24T02:06:52;5.88;;;3.63;;
33453;SDS011;39400;49.744;7.012;2023-07-24T02:09:18;6.45;;;3.38;;
33453;SDS011;39400;49.744;7.012;2023-07-24T02:11:44;6.63;;;3.72;;
33453;SDS011;39400;49.744;7.012;2023-07-24T02:14:09;5.25;;;3.30;;
33453;SDS011;39400;49.744;7.012;2023-07-24T02:16:36;5.68;;;3.72;;
33453;SDS011;39400;49.744;7.012;2023-07-24T02:19:02;9.68;;;3.95;;
33453;SDS011;39400;49.744;7.012;2023-07-24T02:21:27;6.65;;;4.00;;
33453;SDS011;39400;49.744;7.012;2023-07-24T02:23:53;5.63;;;3.20;;
33453;SDS011;39400;49.744;7.012;2023-07-24T02:26:19;5.15;;;3.25;;
33453;SDS011;39400;49.744;7.012;2023-07-24T02:28:44;5.57;;;3.38;;
33453;SDS011;39400;49.744;7.012;2023-07-24T02:31:09;7.13;;;4.00;;
33453;SDS011;39400;49.744;7.012;2023-07-24T02:33:35;6.38;;;3.10;;
33453;SDS011;39400;49.744;7.012;2023-07-24T02:36:00;6.50;;;3.85;;
33453;SDS011;39400;49.744;7.012;2023-07-24T02:38:26;8.15;;;3.92;;
33453;SDS011;39400;49.744;7.012;2023-07-24T02:40:51;6.70;;;3.70;;
33453;SDS011;39400;49.744;7.012;2023-07-24T02:43:17;7.57;;;3.50;;
33453;SDS011;39400;49.744;7.012;2023-07-24T02:45:42;5.15;;;2.92;;
33453;SDS011;39400;49.744;7.012;2023-07-24T02:48:07;7.20;;;3.38;;
33453;SDS011;39400;49.744;7.012;2023-07-24T02:50:33;6.80;;;3.42;;
33453;SDS011;39400;49.744;7.012;2023-07-24T02:52:58;6.85;;;3.15;;
33453;SDS011;39400;49.744;7.012;2023-07-24T02:55:24;7.22;;;3.63;;
33453;SDS011;39400;49.744;7.012;2023-07-24T02:57:50;7.45;;;3.95;;
33453;SDS011;39400;49.744;7.012;2023-07-24T03:00:16;7.10;;;3.47;;
33453;SDS011;39400;49.744;7.012;2023-07-24T03:02:41;6.20;;;3.65;;
33453;SDS011;39400;49.744;7.012;2023-07-24T03:05:07;7.07;;;3.47;;
33453;SDS011;39400;49.744;7.012;2023-07-24T03:07:32;9.30;;;3.72;;
33453;SDS011;39400;49.744;7.012;2023-07-24T03:09:58;6.88;;;3.95;;
33453;SDS011;39400;49.744;7.012;2023-07-24T03:12:24;7.28;;;4.03;;
33453;SDS011;39400;49.744;7.012;2023-07-24T03:14:49;7.45;;;4.00;;
33453;SDS011;39400;49.744;7.012;2023-07-24T03:17:15;8.45;;;3.80;;
33453;SDS011;39400;49.744;7.012;2023-07-24T03:19:40;15.60;;;3.65;;
33453;SDS011;39400;49.744;7.012;2023-07-24T03:22:07;8.30;;;3.58;;
33453;SDS011;39400;49.744;7.012;2023-07-24T03:24:32;7.05;;;4.07;;
33453;SDS011;39400;49.744;7.012;2023-07-24T03:26:58;7.10;;;2.75;;
33453;SDS011;39400;49.744;7.012;2023-07-24T03:29:23;5.20;;;3.25;;
33453;SDS011;39400;49.744;7.012;2023-07-24T03:31:49;5.85;;;2.95;;
33453;SDS011;39400;49.744;7.012;2023-07-24T03:34:15;6.22;;;3.50;;
33453;SDS011;39400;49.744;7.012;2023-07-24T03:36:40;5.65;;;2.92;;
33453;SDS011;39400;49.744;7.012;2023-07-24T03:39:05;5.57;;;3.05;;
33453;SDS011;39400;49.744;7.012;2023-07-24T03:41:30;4.18;;;2.83;;
33453;SDS011;39400;49.744;7.012;2023-07-24T03:43:56;5.22;;;2.97;;
33453;SDS011;39400;49.744;7.012;2023-07-24T03:46:22;4.85;;;2.90;;
33453;SDS011;39400;49.744;7.012;2023-07-24T03:48:47;5.55;;;3.17;;
33453;SDS011;39400;49.744;7.012;2023-07-24T03:51:13;5.00;;;3.40;;
33453;SDS011;39400;49.744;7.012;2023-07-24T03:53:38;6.05;;;3.25;;
33453;SDS011;39400;49.744;7.012;2023-07-24T03:56:03;5.85;;;3.17;;
33453;SDS011;39400;49.744;7.012;2023-07-24T03:58:29;4.68;;;3.35;;
33453;SDS011;39400;49.744;7.012;2023-07-24T04:00:54;8.70;;;3.65;;
33453;SDS011;39400;49.744;7.012;2023-07-24T04:03:19;7.47;;;3.78;;
33453;SDS011;39400;49.744;7.012;2023-07-24T04:05:45;13.75;;;4.38;;
33453;SDS011;39400;49.744;7.012;2023-07-24T04:08:10;6.75;;;3.25;;
33453;SDS011;39400;49.744;7.012;2023-07-24T04:10:36;6.55;;;4.68;;
33453;SDS011;39400;49.744;7.012;2023-07-24T04:13:01;5.38;;;3.17;;
33453;SDS011;39400;49.744;7.012;2023-07-24T04:15:26;6.00;;;4.15;;
33453;SDS011;39400;49.744;7.012;2023-07-24T04:17:52;7.03;;;4.43;;
33453;SDS011;39400;49.744;7.012;2023-07-24T04:20:17;7.68;;;4.13;;
33453;SDS011;39400;49.744;7.012;2023-07-24T04:22:42;6.55;;;3.92;;
33453;SDS011;39400;49.744;7.012;2023-07-24T04:25:08;6.15;;;3.83;;
33453;SDS011;39400;49.744;7.012;2023-07-24T04:27:33;7.38;;;3.95;;
33453;SDS011;39400;49.744;7.012;2023-07-24T04:29:58;8.60;;;4.13;;
33453;SDS011;39400;49.744;7.012;2023-07-24T04:32:25;11.23;;;5.90;;
33453;SDS011;39400;49.744;7.012;2023-07-24T04:34:51;6.95;;;5.03;;
33453;SDS011;39400;49.744;7.012;2023-07-24T04:37:16;11.50;;;5.63;;
33453;SDS011;39400;49.744;7.012;2023-07-24T04:39:42;7.43;;;4.45;;
33453;SDS011;39400;49.744;7.012;2023-07-24T04:42:07;8.23;;;3.95;;
33453;SDS011;39400;49.744;7.012;2023-07-24T04:44:32;6.47;;;3.97;;
33453;SDS011;39400;49.744;7.012;2023-07-24T04:46:58;8.45;;;4.57;;
33453;SDS011;39400;49.744;7.012;2023-07-24T04:49:23;8.05;;;3.58;;
33453;SDS011;39400;49.744;7.012;2023-07-24T04:51:49;7.55;;;4.28;;
33453;SDS011;39400;49.744;7.012;2023-07-24T04:54:15;7.47;;;4.10;;
33453;SDS011;39400;49.744;7.012;2023-07-24T04:56:40;6.20;;;3.92;;
33453;SDS011;39400;49.744;7.012;2023-07-24T04:59:05;6.82;;;3.72;;
33453;SDS011;39400;49.744;7.012;2023-07-24T05:01:31;6.72;;;4.05;;
33453;SDS011;39400;49.744;7.012;2023-07-24T05:03:56;6.55;;;3.53;;
33453;SDS011;39400;49.744;7.012;2023-07-24T05:06:21;6.70;;;3.15;;
33453;SDS011;39400;49.744;7.012;2023-07-24T05:08:47;4.65;;;3.10;;
33453;SDS011;39400;49.744;7.012;2023-07-24T05:11:12;6.18;;;3.70;;
33453;SDS011;39400;49.744;7.012;2023-07-24T05:13:37;5.03;;;3.22;;
33453;SDS011;39400;49.744;7.012;2023-07-24T05:16:03;4.88;;;3.15;;
33453;SDS011;39400;49.744;7.012;2023-07-24T05:18:28;5.32;;;2.75;;
33453;SDS011;39400;49.744;7.012;2023-07-24T05:20:53;5.78;;;3.47;;
33453;SDS011;39400;49.744;7.012;2023-07-24T05:23:19;5.63;;;3.80;;
33453;SDS011;39400;49.744;7.012;2023-07-24T05:25:44;5.80;;;3.58;;
33453;SDS011;39400;49.744;7.012;2023-07-24T05:28:09;5.95;;;3.40;;
33453;SDS011;39400;49.744;7.012;2023-07-24T05:30:35;6.85;;;3.53;;
33453;SDS011;39400;49.744;7.012;2023-07-24T05:33:00;6.00;;;3.83;;
33453;SDS011;39400;49.744;7.012;2023-07-24T05:35:26;5.90;;;3.30;;
33453;SDS011;39400;49.744;7.012;2023-07-24T05:37:51;4.18;;;2.95;;
33453;SDS011;39400;49.744;7.012;2023-07-24T05:40:17;6.95;;;3.72;;
33453;SDS011;39400;49.744;7.012;2023-07-24T05:42:42;5.13;;;3.38;;
33453;SDS011;39400;49.744;7.012;2023-07-24T05:45:08;8.10;;;3.60;;
33453;SDS011;39400;49.744;7.012;2023-07-24T05:47:33;5.30;;;3.15;;
33453;SDS011;39400;49.744;7.012;2023-07-24T05:49:59;6.47;;;3.15;;
33453;SDS011;39400;49.744;7.012;2023-07-24T05:52:24;6.38;;;3.20;;
33453;SDS011;39400;49.744;7.012;2023-07-24T05:54:49;5.80;;;3.20;;
33453;SDS011;39400;49.744;7.012;2023-07-24T05:57:15;4.07;;;3.00;;
33453;SDS011;39400;49.744;7.012;2023-07-24T05:59:40;4.10;;;2.83;;
33453;SDS011;39400;49.744;7.012;2023-07-24T06:02:05;7.93;;;3.05;;
33453;SDS011;39400;49.744;7.012;2023-07-24T06:04:31;6.85;;;3.33;;
33453;SDS011;39400;49.744;7.012;2023-07-24T06:06:56;6.10;;;3.20;;
33453;SDS011;39400;49.744;7.012;2023-07-24T06:09:21;8.52;;;4.50;;
33453;SDS011;39400;49.744;7.012;2023-07-24T06:11:47;7.55;;;4.30;;
33453;SDS011;39400;49.744;7.012;2023-07-24T06:14:12;5.10;;;3.40;;
33453;SDS011;39400;49.744;7.012;2023-07-24T06:16:37;6.05;;;3.40;;
33453;SDS011;39400;49.744;7.012;2023-07-24T06:19:03;7.50;;;3.67;;
33453;SDS011;39400;49.744;7.012;2023-07-24T06:21:28;10.43;;;4.35;;
33453;SDS011;39400;49.744;7.012;2023-07-24T06:23:53;5.68;;;3.38;;
33453;SDS011;39400;49.744;7.012;2023-07-24T06:26:19;5.90;;;3.58;;
33453;SDS011;39400;49.744;7.012;2023-07-24T06:28:44;5.72;;;3.80;;
33453;SDS011;39400;49.744;7.012;2023-07-24T06:31:09;5.60;;;3.85;;
33453;SDS011;39400;49.744;7.012;2023-07-24T06:33:35;5.50;;;3.67;;
33453;SDS011;39400;49.744;7.012;2023-07-24T06:36:00;11.85;;;8.38;;
33453;SDS011;39400;49.744;7.012;2023-07-24T06:38:26;8.45;;;5.45;;
33453;SDS011;39400;49.744;7.012;2023-07-24T06:40:52;7.85;;;4.15;;
33453;SDS011;39400;49.744;7.012;2023-07-24T06:43:17;8.35;;;4.35;;
33453;SDS011;39400;49.744;7.012;2023-07-24T06:45:42;7.95;;;4.45;;
33453;SDS011;39400;49.744;7.012;2023-07-24T06:48:08;6.43;;;4.00;;
33453;SDS011;39400;49.744;7.012;2023-07-24T06:50:33;9.10;;;3.45;;
33453;SDS011;39400;49.744;7.012;2023-07-24T06:52:58;7.93;;;4.45;;
33453;SDS011;39400;49.744;7.012;2023-07-24T06:55:24;6.93;;;3.80;;
33453;SDS011;39400;49.744;7.012;2023-07-24T06:57:49;6.82;;;4.03;;
33453;SDS011;39400;49.744;7.012;2023-07-24T07:00:14;7.82;;;4.15;;
33453;SDS011;39400;49.744;7.012;2023-07-24T07:02:40;8.73;;;4.10;;
33453;SDS011;39400;49.744;7.012;2023-07-24T07:05:05;8.25;;;4.53;;
33453;SDS011;39400;49.744;7.012;2023-07-24T07:07:31;7.78;;;3.63;;
33453;SDS011;39400;49.744;7.012;2023-07-24T07:09:57;9.02;;;4.95;;
33453;SDS011;39400;49.744;7.012;2023-07-24T07:12:22;10.25;;;3.78;;
33453;SDS011;39400;49.744;7.012;2023-07-24T07:14:47;6.88;;;4.70;;
33453;SDS011;39400;49.744;7.012;2023-07-24T07:17:13;6.75;;;3.50;;
33453;SDS011;39400;49.744;7.012;2023-07-24T07:19:38;8.68;;;3.78;;
33453;SDS011;39400;49.744;7.012;2023-07-24T07:22:04;6.30;;;3.63;;
33453;SDS011;39400;49.744;7.012;2023-07-24T07:24:29;7.40;;;3.95;;
33453;SDS011;39400;49.744;7.012;2023-07-24T07:26:54;7.75;;;3.90;;
33453;SDS011;39400;49.744;7.012;2023-07-24T07:29:20;5.95;;;3.85;;
33453;SDS011;39400;49.744;7.012;2023-07-24T07:31:45;6.95;;;4.50;;
33453;SDS011;39400;49.744;7.012;2023-07-24T07:34:10;5.90;;;3.58;;
33453;SDS011;39400;49.744;7.012;2023-07-24T07:36:36;6.75;;;4.13;;
33453;SDS011;39400;49.744;7.012;2023-07-24T07:39:01;6.40;;;3.83;;
33453;SDS011;39400;49.744;7.012;2023-07-24T07:41:26;4.72;;;2.97;;
33453;SDS011;39400;49.744;7.012;2023-07-24T07:43:52;7.47;;;4.00;;
33453;SDS011;39400;49.744;7.012;2023-07-24T07:46:17;5.72;;;3.40;;
33453;SDS011;39400;49.744;7.012;2023-07-24T07:48:42;7.75;;;3.95;;
33453;SDS011;39400;49.744;7.012;2023-07-24T07:51:08;10.15;;;4.40;;
33453;SDS011;39400;49.744;7.012;2023-07-24T07:53:33;8.85;;;3.38;;
33453;SDS011;39400;49.744;7.012;2023-07-24T07:55:58;9.35;;;3.42;;
33453;SDS011;39400;49.744;7.012;2023-07-24T07:58:24;8.68;;;3.72;;
33453;SDS011;39400;49.744;7.012;2023-07-24T08:00:49;7.30;;;3.70;;
33453;SDS011;39400;49.744;7.012;2023-07-24T08:03:15;5.97;;;3.88;;
33453;SDS011;39400;49.744;7.012;2023-07-24T08:05:40;9.80;;;4.35;;
33453;SDS011;39400;49.744;7.012;2023-07-24T08:08:05;7.72;;;4.15;;
33453;SDS011;39400;49.744;7.012;2023-07-24T08:10:31;8.63;;;4.18;;
33453;SDS011;39400;49.744;7.012;2023-07-24T08:12:56;6.18;;;3.60;;
33453;SDS011;39400;49.744;7.012;2023-07-24T08:15:21;7.13;;;3.85;;
33453;SDS011;39400;49.744;7.012;2023-07-24T08:17:47;10.77;;;4.40;;
33453;SDS011;39400;49.744;7.012;2023-07-24T08:20:12;9.20;;;3.58;;
33453;SDS011;39400;49.744;7.012;2023-07-24T08:22:37;5.38;;;3.42;;
33453;SDS011;39400;49.744;7.012;2023-07-24T08:25:02;7.40;;;3.97;;
33453;SDS011;39400;49.744;7.012;2023-07-24T08:27:28;6.88;;;3.85;;
33453;SDS011;39400;49.744;7.012;2023-07-24T08:29:53;9.32;;;4.55;;
33453;SDS011;39400;49.744;7.012;2023-07-24T08:32:19;9.05;;;4.28;;
33453;SDS011;39400;49.744;7.012;2023-07-24T08:34:45;5.65;;;3.45;;
33453;SDS011;39400;49.744;7.012;2023-07-24T08:37:11;7.55;;;4.07;;
33453;SDS011;39400;49.744;7.012;2023-07-24T08:39:36;5.97;;;3.83;;
33453;SDS011;39400;49.744;7.012;2023-07-24T08:42:07;8.98;;;4.45;;
33453;SDS011;39400;49.744;7.012;2023-07-24T08:44:34;6.97;;;4.10;;
33453;SDS011;39400;49.744;7.012;2023-07-24T08:47:00;6.53;;;3.85;;
33453;SDS011;39400;49.744;7.012;2023-07-24T08:49:26;5.90;;;4.13;;
33453;SDS011;39400;49.744;7.012;2023-07-24T08:51:55;8.13;;;4.43;;
33453;SDS011;39400;49.744;7.012;2023-07-24T08:54:24;7.10;;;4.00;;
33453;SDS011;39400;49.744;7.012;2023-07-24T08:56:51;6.00;;;4.35;;
33453;SDS011;39400;49.744;7.012;2023-07-24T08:59:17;5.15;;;3.90;;
33453;SDS011;39400;49.744;7.012;2023-07-24T09:01:43;8.60;;;4.07;;
33453;SDS011;39400;49.744;7.012;2023-07-24T09:04:09;7.30;;;5.05;;
33453;SDS011;39400;49.744;7.012;2023-07-24T09:06:34;7.05;;;4.22;;
33453;SDS011;39400;49.744;7.012;2023-07-24T09:09:00;7.60;;;4.10;;
33453;SDS011;39400;49.744;7.012;2023-07-24T09:11:26;6.57;;;3.67;;
33453;SDS011;39400;49.744;7.012;2023-07-24T09:13:51;6.28;;;3.60;;
33453;SDS011;39400;49.744;7.012;2023-07-24T09:16:26;11.73;;;4.78;;
33453;SDS011;39400;49.744;7.012;2023-07-24T09:18:52;6.68;;;4.35;;
33453;SDS011;39400;49.744;7.012;2023-07-24T09:21:30;5.10;;;3.35;;
33453;SDS011;39400;49.744;7.012;2023-07-24T09:23:57;6.40;;;4.38;;
33453;SDS011;39400;49.744;7.012;2023-07-24T09:26:22;8.55;;;4.43;;
33453;SDS011;39400;49.744;7.012;2023-07-24T09:28:54;5.75;;;3.58;;
33453;SDS011;39400;49.744;7.012;2023-07-24T09:31:19;6.97;;;4.43;;
33453;SDS011;39400;49.744;7.012;2023-07-24T09:33:45;6.35;;;4.40;;
33453;SDS011;39400;49.744;7.012;2023-07-24T09:36:10;6.55;;;4.25;;
33453;SDS011;39400;49.744;7.012;2023-07-24T09:38:36;7.45;;;4.40;;
33453;SDS011;39400;49.744;7.012;2023-07-24T09:41:02;7.60;;;4.32;;
33453;SDS011;39400;49.744;7.012;2023-07-24T09:43:29;9.80;;;4.82;;
33453;SDS011;39400;49.744;7.012;2023-07-24T09:45:55;7.93;;;4.50;;
33453;SDS011;39400;49.744;7.012;2023-07-24T09:48:22;8.77;;;4.72;;
33453;SDS011;39400;49.744;7.012;2023-07-24T09:50:58;11.10;;;5.40;;
33453;SDS011;39400;49.744;7.012;2023-07-24T09:53:38;9.57;;;4.97;;
33453;SDS011;39400;49.744;7.012;2023-07-24T09:56:08;7.50;;;4.63;;
33453;SDS011;39400;49.744;7.012;2023-07-24T09:58:36;11.27;;;4.97;;
33453;SDS011;39400;49.744;7.012;2023-07-24T10:01:02;6.90;;;4.35;;
33453;SDS011;39400;49.744;7.012;2023-07-24T10:03:29;9.00;;;5.05;;
33453;SDS011;39400;49.744;7.012;2023-07-24T10:05:55;8.68;;;4.55;;
33453;SDS011;39400;49.744;7.012;2023-07-24T10:08:20;7.80;;;4.60;;
33453;SDS011;39400;49.744;7.012;2023-07-24T10:10:46;6.38;;;4.60;;
33453;SDS011;39400;49.744;7.012;2023-07-24T10:13:12;5.97;;;3.85;;
33453;SDS011;39400;49.744;7.012;2023-07-24T10:15:38;8.63;;;4.50;;
33453;SDS011;39400;49.744;7.012;2023-07-24T10:18:07;9.13;;;4.13;;
33453;SDS011;39400;49.744;7.012;2023-07-24T10:23:02;7.15;;;3.83;;
33453;SDS011;39400;49.744;7.012;2023-07-24T10:25:29;7.03;;;4.10;;
33453;SDS011;39400;49.744;7.012;2023-07-24T10:27:55;7.35;;;4.28;;
33453;SDS011;39400;49.744;7.012;2023-07-24T10:30:27;5.63;;;3.80;;
33453;SDS011;39400;49.744;7.012;2023-07-24T10:32:53;6.20;;;3.83;;
33453;SDS011;39400;49.744;7.012;2023-07-24T10:35:35;10.27;;;4.10;;
33453;SDS011;39400;49.744;7.012;2023-07-24T10:38:02;4.55;;;3.13;;
33453;SDS011;39400;49.744;7.012;2023-07-24T10:40:27;6.03;;;4.47;;
33453;SDS011;39400;49.744;7.012;2023-07-24T10:45:51;6.82;;;3.97;;
33453;SDS011;39400;49.744;7.012;2023-07-24T10:48:18;8.00;;;3.45;;
33453;SDS011;39400;49.744;7.012;2023-07-24T10:50:45;6.75;;;4.07;;
33453;SDS011;39400;49.744;7.012;2023-07-24T10:53:16;7.30;;;3.65;;
33453;SDS011;39400;49.744;7.012;2023-07-24T10:55:43;6.32;;;3.85;;
33453;SDS011;39400;49.744;7.012;2023-07-24T10:58:09;7.28;;;4.07;;
33453;SDS011;39400;49.744;7.012;2023-07-24T11:00:36;8.07;;;4.35;;
33453;SDS011;39400;49.744;7.012;2023-07-24T11:03:01;5.90;;;3.25;;
33453;SDS011;39400;49.744;7.012;2023-07-24T11:05:26;7.63;;;4.10;;
33453;SDS011;39400;49.744;7.012;2023-07-24T11:07:52;6.70;;;2.92;;
33453;SDS011;39400;49.744;7.012;2023-07-24T11:10:18;7.30;;;3.75;;
33453;SDS011;39400;49.744;7.012;2023-07-24T11:12:45;6.10;;;2.92;;
33453;SDS011;39400;49.744;7.012;2023-07-24T11:15:11;6.10;;;3.80;;
33453;SDS011;39400;49.744;7.012;2023-07-24T11:17:37;6.70;;;3.97;;
33453;SDS011;39400;49.744;7.012;2023-07-24T11:22:32;4.80;;;3.22;;
33453;SDS011;39400;49.744;7.012;2023-07-24T11:24:58;5.60;;;3.92;;
33453;SDS011;39400;49.744;7.012;2023-07-24T11:27:24;8.15;;;4.25;;
33453;SDS011;39400;49.744;7.012;2023-07-24T11:29:50;5.00;;;4.03;;
33453;SDS011;39400;49.744;7.012;2023-07-24T11:32:19;6.57;;;4.13;;
33453;SDS011;39400;49.744;7.012;2023-07-24T11:37:11;5.90;;;4.15;;
33453;SDS011;39400;49.744;7.012;2023-07-24T11:39:37;7.15;;;4.28;;
33453;SDS011;39400;49.744;7.012;2023-07-24T11:42:02;16.48;;;5.13;;
33453;SDS011;39400;49.744;7.012;2023-07-24T11:44:28;11.60;;;6.15;;
33453;SDS011;39400;49.744;7.012;2023-07-24T11:47:00;9.52;;;5.25;;
33453;SDS011;39400;49.744;7.012;2023-07-24T11:49:27;7.63;;;4.68;;
33453;SDS011;39400;49.744;7.012;2023-07-24T11:51:58;10.68;;;5.18;;
33453;SDS011;39400;49.744;7.012;2023-07-24T11:54:24;11.63;;;4.63;;
33453;SDS011;39400;49.744;7.012;2023-07-24T11:56:50;10.65;;;6.10;;
33453;SDS011;39400;49.744;7.012;2023-07-24T11:59:15;8.90;;;5.50;;
33453;SDS011;39400;49.744;7.012;2023-07-24T12:01:40;7.85;;;4.50;;
33453;SDS011;39400;49.744;7.012;2023-07-24T12:04:10;7.70;;;5.45;;
33453;SDS011;39400;49.744;7.012;2023-07-24T12:06:37;8.77;;;5.80;;
33453;SDS011;39400;49.744;7.012;2023-07-24T12:09:03;7.93;;;5.15;;
33453;SDS011;39400;49.744;7.012;2023-07-24T12:11:29;7.68;;;5.35;;
33453;SDS011;39400;49.744;7.012;2023-07-24T12:13:55;8.07;;;4.45;;
33453;SDS011;39400;49.744;7.012;2023-07-24T12:16:21;8.27;;;5.95;;
33453;SDS011;39400;49.744;7.012;2023-07-24T12:18:46;7.55;;;3.92;;
33453;SDS011;39400;49.744;7.012;2023-07-24T12:21:11;12.73;;;5.43;;
33453;SDS011;39400;49.744;7.012;2023-07-24T12:23:36;9.70;;;5.15;;
33453;SDS011;39400;49.744;7.012;2023-07-24T12:26:03;6.45;;;4.35;;
33453;SDS011;39400;49.744;7.012;2023-07-24T12:28:28;10.32;;;5.07;;
33453;SDS011;39400;49.744;7.012;2023-07-24T12:30:53;8.68;;;4.68;;
33453;SDS011;39400;49.744;7.012;2023-07-24T12:33:19;6.95;;;4.80;;
33453;SDS011;39400;49.744;7.012;2023-07-24T12:35:44;10.25;;;4.65;;
33453;SDS011;39400;49.744;7.012;2023-07-24T12:38:09;5.20;;;4.57;;
33453;SDS011;39400;49.744;7.012;2023-07-24T12:40:34;5.32;;;3.50;;
33453;SDS011;39400;49.744;7.012;2023-07-24T12:43:00;5.63;;;3.67;;
33453;SDS011;39400;49.744;7.012;2023-07-24T12:45:25;4.95;;;3.33;;
33453;SDS011;39400;49.744;7.012;2023-07-24T12:47:50;6.47;;;3.65;;
33453;SDS011;39400;49.744;7.012;2023-07-24T12:50:16;3.75;;;2.67;;
33453;SDS011;39400;49.744;7.012;2023-07-24T12:52:41;5.72;;;2.45;;
33453;SDS011;39400;49.744;7.012;2023-07-24T12:55:06;4.25;;;2.85;;
33453;SDS011;39400;49.744;7.012;2023-07-24T12:57:32;3.33;;;2.22;;
33453;SDS011;39400;49.744;7.012;2023-07-24T12:59:57;4.75;;;2.55;;
33453;SDS011;39400;49.744;7.012;2023-07-24T13:02:22;3.25;;;2.03;;
33453;SDS011;39400;49.744;7.012;2023-07-24T13:04:48;4.47;;;2.53;;
33453;SDS011;39400;49.744;7.012;2023-07-24T13:07:13;5.30;;;2.53;;
33453;SDS011;39400;49.744;7.012;2023-07-24T13:09:38;4.50;;;2.58;;
33453;SDS011;39400;49.744;7.012;2023-07-24T13:12:04;5.43;;;2.60;;
33453;SDS011;39400;49.744;7.012;2023-07-24T13:14:29;1.88;;;1.52;;
33453;SDS011;39400;49.744;7.012;2023-07-24T13:16:55;3.55;;;1.55;;
33453;SDS011;39400;49.744;7.012;2023-07-24T13:19:20;3.25;;;1.60;;
33453;SDS011;39400;49.744;7.012;2023-07-24T13:21:45;2.33;;;1.30;;
33453;SDS011;39400;49.744;7.012;2023-07-24T13:24:11;2.80;;;1.02;;
33453;SDS011;39400;49.744;7.012;2023-07-24T13:26:36;4.25;;;1.30;;
33453;SDS011;39400;49.744;7.012;2023-07-24T13:29:02;2.58;;;1.30;;
33453;SDS011;39400;49.744;7.012;2023-07-24T13:31:28;2.20;;;1.05;;
33453;SDS011;39400;49.744;7.012;2023-07-24T13:33:53;1.42;;;0.90;;
33453;SDS011;39400;49.744;7.012;2023-07-24T13:36:18;1.25;;;1.15;;
33453;SDS011;39400;49.744;7.012;2023-07-24T13:38:44;2.08;;;1.25;;
33453;SDS011;39400;49.744;7.012;2023-07-24T13:41:09;1.25;;;0.93;;
33453;SDS011;39400;49.744;7.012;2023-07-24T13:43:34;2.03;;;1.10;;
33453;SDS011;39400;49.744;7.012;2023-07-24T13:46:00;3.85;;;0.95;;
33453;SDS011;39400;49.744;7.012;2023-07-24T13:48:27;1.70;;;1.25;;
33453;SDS011;39400;49.744;7.012;2023-07-24T13:50:52;2.33;;;1.20;;
33453;SDS011;39400;49.744;7.012;2023-07-24T13:53:17;2.30;;;1.13;;
33453;SDS011;39400;49.744;7.012;2023-07-24T13:55:43;1.88;;;1.15;;
33453;SDS011;39400;49.744;7.012;2023-07-24T13:58:08;2.67;;;1.27;;
33453;SDS011;39400;49.744;7.012;2023-07-24T14:00:33;2.03;;;1.42;;
33453;SDS011;39400;49.744;7.012;2023-07-24T14:02:59;2.60;;;1.60;;
33453;SDS011;39400;49.744;7.012;2023-07-24T14:05:24;2.63;;;1.58;;
33453;SDS011;39400;49.744;7.012;2023-07-24T14:07:49;3.20;;;1.80;;
33453;SDS011;39400;49.744;7.012;2023-07-24T14:10:15;2.03;;;1.67;;
33453;SDS011;39400;49.744;7.012;2023-07-24T14:12:40;1.92;;;1.58;;
33453;SDS011;39400;49.744;7.012;2023-07-24T14:15:05;4.07;;;2.03;;
33453;SDS011;39400;49.744;7.012;2023-07-24T14:17:31;5.10;;;2.03;;
33453;SDS011;39400;49.744;7.012;2023-07-24T14:19:56;4.50;;;1.73;;
33453;SDS011;39400;49.744;7.012;2023-07-24T14:22:21;5.45;;;1.95;;
33453;SDS011;39400;49.744;7.012;2023-07-24T14:24:47;3.10;;;1.95;;
33453;SDS011;39400;49.744;7.012;2023-07-24T14:27:13;1.85;;;1.45;;
33453;SDS011;39400;49.744;7.012;2023-07-24T14:29:38;3.92;;;1.60;;
33453;SDS011;39400;49.744;7.012;2023-07-24T14:32:04;2.45;;;1.42;;
33453;SDS011;39400;49.744;7.012;2023-07-24T14:34:30;2.42;;;1.40;;
33453;SDS011;39400;49.744;7.012;2023-07-24T14:36:55;2.78;;;1.80;;
33453;SDS011;39400;49.744;7.012;2023-07-24T14:39:21;3.90;;;1.83;;
33453;SDS011;39400;49.744;7.012;2023-07-24T14:41:46;4.53;;;2.10;;
33453;SDS011;39400;49.744;7.012;2023-07-24T14:44:11;12.82;;;1.60;;
33453;SDS011;39400;49.744;7.012;2023-07-24T14:46:37;2.65;;;1.70;;
33453;SDS011;39400;49.744;7.012;2023-07-24T14:49:02;4.85;;;1.90;;
33453;SDS011;39400;49.744;7.012;2023-07-24T14:51:27;2.53;;;1.88;;
33453;SDS011;39400;49.744;7.012;2023-07-24T14:53:53;3.47;;;2.13;;